Terminal Aerodrome Forecast
Issued by NWS Memphis, TN

Home | Current Version | Previous Version | Text Only | Print | Product List | Glossary On
Versions: 1 2 3 4 5 6 7 8 9 10 11 12 13
000
FTUS44 KMEG 042324
TAFJBR
TAF
KJBR 042324Z 0500/0524 20009KT P6SM FEW060
     FM050200 17004KT P6SM SKC
     FM051500 19010G15KT P6SM SCT060 SCT250=

USA.gov is the U.S. government's official web portal to all federal, state and local government web resources and services.